sensor_id;sensor_type;location;lat;lon;timestamp;pressure;altitude;pressure_sealevel;temperature;humidity
45040;BME280;30778;53.574;7.770;2024-03-23T00:52:16;100839.03;;;3.32;56.93
45040;BME280;30778;53.574;7.770;2024-03-23T00:54:41;100830.38;;;3.36;56.92
45040;BME280;30778;53.574;7.770;2024-03-23T00:57:06;100825.16;;;3.39;56.62
45040;BME280;30778;53.574;7.770;2024-03-23T00:59:32;100829.56;;;3.25;57.12
45040;BME280;30778;53.574;7.770;2024-03-23T01:01:57;100827.00;;;3.25;57.36
45040;BME280;30778;53.574;7.770;2024-03-23T01:04:23;100826.25;;;3.13;58.09
45040;BME280;30778;53.574;7.770;2024-03-23T01:06:48;100826.25;;;3.13;57.56
45040;BME280;30778;53.574;7.770;2024-03-23T01:09:14;100814.22;;;3.11;57.79
45040;BME280;30778;53.574;7.770;2024-03-23T01:11:39;100813.22;;;3.29;57.56
45040;BME280;30778;53.574;7.770;2024-03-23T01:14:05;100809.72;;;3.33;57.33
45040;BME280;30778;53.574;7.770;2024-03-23T01:16:33;100807.06;;;3.41;57.10
45040;BME280;30778;53.574;7.770;2024-03-23T01:18:58;100802.72;;;3.44;56.58
45040;BME280;30778;53.574;7.770;2024-03-23T01:21:24;100805.34;;;3.38;56.77
45040;BME280;30778;53.574;7.770;2024-03-23T01:23:50;100797.66;;;3.35;56.66
45040;BME280;30778;53.574;7.770;2024-03-23T01:26:15;100800.25;;;3.33;56.68
45040;BME280;30778;53.574;7.770;2024-03-23T01:28:41;100793.50;;;3.15;57.86
45040;BME280;30778;53.574;7.770;2024-03-23T01:31:07;100787.50;;;3.16;57.20
45040;BME280;30778;53.574;7.770;2024-03-23T01:33:32;100777.22;;;3.10;57.71
45040;BME280;30778;53.574;7.770;2024-03-23T01:35:58;100770.38;;;3.06;57.39
45040;BME280;30778;53.574;7.770;2024-03-23T01:38:23;100771.34;;;2.96;58.13
45040;BME280;30778;53.574;7.770;2024-03-23T01:40:49;100778.16;;;3.05;57.49
45040;BME280;30778;53.574;7.770;2024-03-23T01:43:14;100777.47;;;2.87;57.97
45040;BME280;30778;53.574;7.770;2024-03-23T01:45:40;100763.72;;;2.84;58.04
45040;BME280;30778;53.574;7.770;2024-03-23T01:48:06;100762.78;;;2.92;57.66
45040;BME280;30778;53.574;7.770;2024-03-23T01:50:32;100763.72;;;2.84;57.61
45040;BME280;30778;53.574;7.770;2024-03-23T01:53:04;100759.41;;;2.84;57.78
45040;BME280;30778;53.574;7.770;2024-03-23T01:55:34;100758.63;;;2.76;57.67
45040;BME280;30778;53.574;7.770;2024-03-23T01:58:04;100761.31;;;2.62;58.55
45040;BME280;30778;53.574;7.770;2024-03-23T02:00:30;100758.75;;;2.62;57.77
45040;BME280;30778;53.574;7.770;2024-03-23T02:02:55;100762.19;;;2.61;57.87
45040;BME280;30778;53.574;7.770;2024-03-23T02:05:21;100751.91;;;2.56;58.09
45040;BME280;30778;53.574;7.770;2024-03-23T02:07:47;100745.13;;;2.48;58.28
45040;BME280;30778;53.574;7.770;2024-03-23T02:10:13;100741.69;;;2.49;57.93
45040;BME280;30778;53.574;7.770;2024-03-23T02:12:39;100733.09;;;2.44;58.50
45040;BME280;30778;53.574;7.770;2024-03-23T02:15:04;100736.56;;;2.40;58.60
45040;BME280;30778;53.574;7.770;2024-03-23T02:17:33;100742.63;;;2.40;58.27
45040;BME280;30778;53.574;7.770;2024-03-23T02:19:59;100724.59;;;2.34;58.71
45040;BME280;30778;53.574;7.770;2024-03-23T02:22:33;100728.19;;;2.13;59.14
45040;BME280;30778;53.574;7.770;2024-03-23T02:24:59;100715.25;;;2.22;58.87
45040;BME280;30778;53.574;7.770;2024-03-23T02:27:24;100716.97;;;2.17;59.31
45040;BME280;30778;53.574;7.770;2024-03-23T02:29:50;100710.00;;;2.30;58.45
45040;BME280;30778;53.574;7.770;2024-03-23T02:32:15;100710.84;;;2.30;58.54
45040;BME280;30778;53.574;7.770;2024-03-23T02:34:41;100694.66;;;2.18;58.84
45040;BME280;30778;53.574;7.770;2024-03-23T02:37:11;100699.81;;;2.13;59.06
45040;BME280;30778;53.574;7.770;2024-03-23T02:39:37;100703.44;;;1.87;59.99
45040;BME280;30778;53.574;7.770;2024-03-23T02:42:02;100694.03;;;1.85;60.52
45040;BME280;30778;53.574;7.770;2024-03-23T02:44:28;100697.41;;;1.91;60.11
45040;BME280;30778;53.574;7.770;2024-03-23T02:46:53;100688.88;;;1.86;60.25
45040;BME280;30778;53.574;7.770;2024-03-23T02:49:18;100680.16;;;2.03;59.42
45040;BME280;30778;53.574;7.770;2024-03-23T02:51:44;100677.56;;;2.00;59.55
45040;BME280;30778;53.574;7.770;2024-03-23T02:54:10;100680.22;;;1.90;59.39
45040;BME280;30778;53.574;7.770;2024-03-23T02:56:36;100683.72;;;1.82;60.07
45040;BME280;30778;53.574;7.770;2024-03-23T02:59:01;100683.75;;;1.80;60.67
45040;BME280;30778;53.574;7.770;2024-03-23T03:01:27;100676.97;;;1.67;60.42
45040;BME280;30778;53.574;7.770;2024-03-23T03:03:52;100670.81;;;1.82;60.09
45040;BME280;30778;53.574;7.770;2024-03-23T03:06:25;100666.47;;;1.90;59.97
45040;BME280;30778;53.574;7.770;2024-03-23T03:08:50;100657.97;;;1.80;60.55
45040;BME280;30778;53.574;7.770;2024-03-23T03:11:16;100661.34;;;1.88;59.78
45040;BME280;30778;53.574;7.770;2024-03-23T03:13:41;100660.53;;;1.86;60.17
45040;BME280;30778;53.574;7.770;2024-03-23T03:16:11;100656.19;;;1.91;59.99
45040;BME280;30778;53.574;7.770;2024-03-23T03:18:36;100655.38;;;1.82;60.39
45040;BME280;30778;53.574;7.770;2024-03-23T03:21:03;100655.28;;;1.92;59.77
45040;BME280;30778;53.574;7.770;2024-03-23T03:23:30;100656.13;;;1.94;59.68
45040;BME280;30778;53.574;7.770;2024-03-23T03:25:56;100654.53;;;1.81;60.23
45040;BME280;30778;53.574;7.770;2024-03-23T03:28:22;100652.09;;;1.60;60.80
45040;BME280;30778;53.574;7.770;2024-03-23T03:30:47;100652.97;;;1.56;61.08
45040;BME280;30778;53.574;7.770;2024-03-23T03:33:13;100652.94;;;1.65;61.41
45040;BME280;30778;53.574;7.770;2024-03-23T03:35:38;100646.09;;;1.55;61.31
45040;BME280;30778;53.574;7.770;2024-03-23T03:38:04;100645.94;;;1.79;60.47
45040;BME280;30778;53.574;7.770;2024-03-23T03:40:30;100638.34;;;1.59;61.16
45040;BME280;30778;53.574;7.770;2024-03-23T03:42:55;100641.78;;;1.61;61.25
45040;BME280;30778;53.574;7.770;2024-03-23T03:45:21;100634.00;;;1.69;61.31
45040;BME280;30778;53.574;7.770;2024-03-23T03:47:46;100633.94;;;1.78;60.82
45040;BME280;30778;53.574;7.770;2024-03-23T03:50:12;100635.84;;;1.39;61.80
45040;BME280;30778;53.574;7.770;2024-03-23T03:52:37;100625.34;;;1.76;61.01
45040;BME280;30778;53.574;7.770;2024-03-23T03:55:03;100627.91;;;1.81;60.80
45040;BME280;30778;53.574;7.770;2024-03-23T03:57:29;100622.81;;;1.70;60.69
45040;BME280;30778;53.574;7.770;2024-03-23T03:59:54;100623.78;;;1.58;61.22
45040;BME280;30778;53.574;7.770;2024-03-23T04:02:20;100623.00;;;1.38;61.97
45040;BME280;30778;53.574;7.770;2024-03-23T04:04:45;100620.44;;;1.36;62.09
45040;BME280;30778;53.574;7.770;2024-03-23T04:07:11;100625.50;;;1.55;61.70
45040;BME280;30778;53.574;7.770;2024-03-23T04:09:36;100616.88;;;1.62;61.23
45040;BME280;30778;53.574;7.770;2024-03-23T04:12:02;100622.91;;;1.56;60.95
45040;BME280;30778;53.574;7.770;2024-03-23T04:14:28;100612.50;;;1.68;60.62
45040;BME280;30778;53.574;7.770;2024-03-23T04:16:54;100613.50;;;1.54;61.29
45040;BME280;30778;53.574;7.770;2024-03-23T04:19:20;100613.56;;;1.44;61.32
45040;BME280;30778;53.574;7.770;2024-03-23T04:21:46;100620.41;;;1.47;61.04
45040;BME280;30778;53.574;7.770;2024-03-23T04:24:11;100614.34;;;1.56;60.71
45040;BME280;30778;53.574;7.770;2024-03-23T04:26:41;100607.53;;;1.48;61.31
45040;BME280;30778;53.574;7.770;2024-03-23T04:29:07;100594.78;;;1.24;62.08
45040;BME280;30778;53.574;7.770;2024-03-23T04:31:32;100596.38;;;1.46;60.92
45040;BME280;30778;53.574;7.770;2024-03-23T04:34:02;100598.94;;;1.37;61.47
45040;BME280;30778;53.574;7.770;2024-03-23T04:36:28;100597.19;;;1.50;61.19
45040;BME280;30778;53.574;7.770;2024-03-23T04:38:53;100586.81;;;1.62;60.84
45040;BME280;30778;53.574;7.770;2024-03-23T04:41:19;100586.22;;;1.13;63.02
45040;BME280;30778;53.574;7.770;2024-03-23T04:43:44;100585.22;;;1.40;61.77
45040;BME280;30778;53.574;7.770;2024-03-23T04:46:10;100583.53;;;1.36;61.26
45040;BME280;30778;53.574;7.770;2024-03-23T04:48:35;100578.38;;;1.32;61.92
45040;BME280;30778;53.574;7.770;2024-03-23T04:51:01;100582.66;;;1.44;61.35
45040;BME280;30778;53.574;7.770;2024-03-23T04:53:27;100582.56;;;1.60;60.68
45040;BME280;30778;53.574;7.770;2024-03-23T04:55:56;100573.13;;;1.54;60.74
45040;BME280;30778;53.574;7.770;2024-03-23T04:58:25;100582.63;;;1.47;60.63
45040;BME280;30778;53.574;7.770;2024-03-23T05:00:54;100575.78;;;1.46;61.04
45040;BME280;30778;53.574;7.770;2024-03-23T05:03:20;100568.28;;;1.02;61.59
45040;BME280;30778;53.574;7.770;2024-03-23T05:05:47;100580.97;;;1.34;61.25
45040;BME280;30778;53.574;7.770;2024-03-23T05:08:14;100571.53;;;1.33;60.61
45040;BME280;30778;53.574;7.770;2024-03-23T05:10:43;100574.06;;;1.39;60.54
45040;BME280;30778;53.574;7.770;2024-03-23T05:13:09;100567.16;;;1.47;60.39
45040;BME280;30778;53.574;7.770;2024-03-23T05:15:34;100574.06;;;1.39;60.22
45040;BME280;30778;53.574;7.770;2024-03-23T05:18:00;100570.63;;;1.43;60.23
45040;BME280;30778;53.574;7.770;2024-03-23T05:20:25;100570.63;;;1.46;59.95
45040;BME280;30778;53.574;7.770;2024-03-23T05:22:51;100565.59;;;1.22;60.65
45040;BME280;30778;53.574;7.770;2024-03-23T05:25:16;100568.97;;;1.30;60.42
45040;BME280;30778;53.574;7.770;2024-03-23T05:27:42;100571.50;;;1.42;60.14
45040;BME280;30778;53.574;7.770;2024-03-23T05:30:08;100570.63;;;1.43;60.10
45040;BME280;30778;53.574;7.770;2024-03-23T05:32:34;100568.00;;;1.49;59.84
45040;BME280;30778;53.574;7.770;2024-03-23T05:35:00;100566.34;;;1.41;60.14
45040;BME280;30778;53.574;7.770;2024-03-23T05:37:25;100566.34;;;1.36;60.59
45040;BME280;30778;53.574;7.770;2024-03-23T05:39:51;100564.66;;;1.35;60.61
45040;BME280;30778;53.574;7.770;2024-03-23T05:42:17;100562.94;;;1.32;60.73
45040;BME280;30778;53.574;7.770;2024-03-23T05:44:46;100568.91;;;1.47;60.06
45040;BME280;30778;53.574;7.770;2024-03-23T05:47:12;100568.91;;;1.48;59.91
45040;BME280;30778;53.574;7.770;2024-03-23T05:49:40;100555.69;;;1.84;60.35
45040;BME280;30778;53.574;7.770;2024-03-23T05:52:08;100561.66;;;1.93;60.04
45040;BME280;30778;53.574;7.770;2024-03-23T05:54:33;100553.13;;;1.85;59.42
45040;BME280;30778;53.574;7.770;2024-03-23T05:56:59;100553.09;;;1.90;59.07
45040;BME280;30778;53.574;7.770;2024-03-23T05:59:24;100551.38;;;1.87;59.34
45040;BME280;30778;53.574;7.770;2024-03-23T06:01:50;100547.03;;;1.96;59.37
45040;BME280;30778;53.574;7.770;2024-03-23T06:04:16;100551.53;;;1.72;59.33
45040;BME280;30778;53.574;7.770;2024-03-23T06:06:41;100546.53;;;1.54;59.30
45040;BME280;30778;53.574;7.770;2024-03-23T06:09:07;100548.75;;;1.93;59.01
45040;BME280;30778;53.574;7.770;2024-03-23T06:11:32;100540.78;;;2.18;57.97
45040;BME280;30778;53.574;7.770;2024-03-23T06:13:58;100541.63;;;2.19;59.25
45040;BME280;30778;53.574;7.770;2024-03-23T06:16:23;100547.28;;;3.18;57.56
45040;BME280;30778;53.574;7.770;2024-03-23T06:18:53;100534.00;;;4.40;52.59
45040;BME280;30778;53.574;7.770;2024-03-23T06:21:20;100532.06;;;4.94;50.82
45040;BME280;30778;53.574;7.770;2024-03-23T06:23:46;100538.13;;;5.67;48.32
45040;BME280;30778;53.574;7.770;2024-03-23T06:26:19;100533.78;;;6.02;48.92
45040;BME280;30778;53.574;7.770;2024-03-23T06:28:46;100534.66;;;6.95;45.87
45040;BME280;30778;53.574;7.770;2024-03-23T06:31:12;100525.31;;;8.23;42.97
45040;BME280;30778;53.574;7.770;2024-03-23T06:33:38;100531.59;;;8.64;41.60
45040;BME280;30778;53.574;7.770;2024-03-23T06:36:05;100532.78;;;8.07;43.70
45040;BME280;30778;53.574;7.770;2024-03-23T06:38:31;100528.31;;;9.49;39.07
45040;BME280;30778;53.574;7.770;2024-03-23T06:40:57;100535.00;;;9.34;40.01
45040;BME280;30778;53.574;7.770;2024-03-23T06:43:23;100532.75;;;10.10;39.43
45040;BME280;30778;53.574;7.770;2024-03-23T06:45:55;100527.41;;;10.13;39.93
45040;BME280;30778;53.574;7.770;2024-03-23T06:48:20;100531.78;;;9.49;38.64
45040;BME280;30778;53.574;7.770;2024-03-23T06:50:46;100536.94;;;7.34;43.24
45040;BME280;30778;53.574;7.770;2024-03-23T06:53:13;100534.09;;;6.56;45.64
45040;BME280;30778;53.574;7.770;2024-03-23T06:55:39;100538.31;;;6.27;46.48
45040;BME280;30778;53.574;7.770;2024-03-23T06:58:05;100545.63;;;5.44;48.43
45040;BME280;30778;53.574;7.770;2024-03-23T07:00:31;100547.91;;;5.20;49.60
45040;BME280;30778;53.574;7.770;2024-03-23T07:02:57;100545.63;;;5.44;49.32
45040;BME280;30778;53.574;7.770;2024-03-23T07:05:23;100537.19;;;6.37;48.70
45040;BME280;30778;53.574;7.770;2024-03-23T07:07:49;100541.94;;;6.53;46.50
45040;BME280;30778;53.574;7.770;2024-03-23T07:10:15;100534.47;;;7.29;45.38
45040;BME280;30778;53.574;7.770;2024-03-23T07:12:40;100532.00;;;6.04;47.63
45040;BME280;30778;53.574;7.770;2024-03-23T07:15:06;100537.66;;;5.14;49.17
45040;BME280;30778;53.574;7.770;2024-03-23T07:17:33;100535.97;;;4.73;51.20
45040;BME280;30778;53.574;7.770;2024-03-23T07:20:03;100535.31;;;6.09;48.70
45040;BME280;30778;53.574;7.770;2024-03-23T07:22:32;100530.38;;;4.93;49.78
45040;BME280;30778;53.574;7.770;2024-03-23T07:25:01;100522.63;;;5.99;48.50
45040;BME280;30778;53.574;7.770;2024-03-23T07:27:27;100510.56;;;5.98;48.44
45040;BME280;30778;53.574;7.770;2024-03-23T07:29:53;100507.47;;;6.77;45.86
45040;BME280;30778;53.574;7.770;2024-03-23T07:32:18;100497.28;;;8.53;42.10
45040;BME280;30778;53.574;7.770;2024-03-23T07:34:44;100497.47;;;10.59;37.67
45040;BME280;30778;53.574;7.770;2024-03-23T07:37:10;100491.28;;;10.22;37.14
45040;BME280;30778;53.574;7.770;2024-03-23T07:39:36;100494.16;;;11.65;35.70
45040;BME280;30778;53.574;7.770;2024-03-23T07:42:02;100494.97;;;11.48;36.04
45040;BME280;30778;53.574;7.770;2024-03-23T07:44:31;100491.91;;;11.22;35.16
45040;BME280;30778;53.574;7.770;2024-03-23T07:47:01;100484.97;;;12.24;33.25
45040;BME280;30778;53.574;7.770;2024-03-23T07:49:28;100489.03;;;12.79;32.84
45040;BME280;30778;53.574;7.770;2024-03-23T07:51:53;100475.56;;;13.01;32.00
45040;BME280;30778;53.574;7.770;2024-03-23T07:54:19;100477.44;;;12.67;31.86
45040;BME280;30778;53.574;7.770;2024-03-23T07:56:45;100483.38;;;13.33;32.21
45040;BME280;30778;53.574;7.770;2024-03-23T07:59:11;100478.47;;;12.97;32.37
45040;BME280;30778;53.574;7.770;2024-03-23T08:01:37;100468.63;;;12.84;31.40
45040;BME280;30778;53.574;7.770;2024-03-23T08:04:03;100473.56;;;12.75;32.60
45040;BME280;30778;53.574;7.770;2024-03-23T08:06:29;100468.25;;;11.76;33.25
45040;BME280;30778;53.574;7.770;2024-03-23T08:08:57;100468.59;;;13.77;31.15
45040;BME280;30778;53.574;7.770;2024-03-23T08:11:30;100471.25;;;12.68;32.04
45040;BME280;30778;53.574;7.770;2024-03-23T08:13:58;100471.19;;;13.32;32.20
45040;BME280;30778;53.574;7.770;2024-03-23T08:16:24;100472.84;;;13.19;32.61
45040;BME280;30778;53.574;7.770;2024-03-23T08:18:53;100472.22;;;10.58;36.43
45040;BME280;30778;53.574;7.770;2024-03-23T08:21:18;100475.13;;;11.27;36.33
45040;BME280;30778;53.574;7.770;2024-03-23T08:23:44;100463.31;;;13.32;32.68
45040;BME280;30778;53.574;7.770;2024-03-23T08:26:11;100470.75;;;10.53;35.82
45040;BME280;30778;53.574;7.770;2024-03-23T08:28:37;100468.06;;;9.55;37.76
45040;BME280;30778;53.574;7.770;2024-03-23T08:31:11;100461.13;;;10.34;38.22
45040;BME280;30778;53.574;7.770;2024-03-23T08:33:37;100459.72;;;10.65;37.31
45040;BME280;30778;53.574;7.770;2024-03-23T08:36:06;100462.38;;;11.01;35.46
45040;BME280;30778;53.574;7.770;2024-03-23T08:38:32;100460.41;;;11.59;35.67
45040;BME280;30778;53.574;7.770;2024-03-23T08:41:01;100464.06;;;11.91;34.39
45040;BME280;30778;53.574;7.770;2024-03-23T08:43:40;100448.19;;;12.75;32.84
45040;BME280;30778;53.574;7.770;2024-03-23T08:46:13;100458.44;;;11.46;34.43
45040;BME280;30778;53.574;7.770;2024-03-23T08:48:41;100453.66;;;9.67;36.46
45040;BME280;30778;53.574;7.770;2024-03-23T08:51:10;100448.22;;;9.71;37.53
45040;BME280;30778;53.574;7.770;2024-03-23T08:53:37;100456.00;;;9.73;37.05
45040;BME280;30778;53.574;7.770;2024-03-23T08:56:04;100457.50;;;9.58;36.89
45040;BME280;30778;53.574;7.770;2024-03-23T08:58:30;100459.16;;;8.96;38.53
45040;BME280;30778;53.574;7.770;2024-03-23T09:01:02;100463.97;;;7.39;40.99
45040;BME280;30778;53.574;7.770;2024-03-23T09:03:28;100465.38;;;6.96;44.53
45040;BME280;30778;53.574;7.770;2024-03-23T09:05:54;100472.75;;;5.89;47.35
45040;BME280;30778;53.574;7.770;2024-03-23T09:08:20;100474.25;;;5.31;47.88
45040;BME280;30778;53.574;7.770;2024-03-23T09:10:47;100482.38;;;3.89;52.37
45040;BME280;30778;53.574;7.770;2024-03-23T09:13:13;100478.44;;;4.58;50.87
45040;BME280;30778;53.574;7.770;2024-03-23T09:15:49;100471.34;;;5.43;50.86
45040;BME280;30778;53.574;7.770;2024-03-23T09:18:15;100465.66;;;5.96;47.88
45040;BME280;30778;53.574;7.770;2024-03-23T09:20:41;100472.91;;;6.75;48.23
45040;BME280;30778;53.574;7.770;2024-03-23T09:23:06;100466.81;;;7.31;45.31
45040;BME280;30778;53.574;7.770;2024-03-23T09:25:36;100463.06;;;7.40;46.66
45040;BME280;30778;53.574;7.770;2024-03-23T09:28:01;100453.88;;;8.30;43.71
45040;BME280;30778;53.574;7.770;2024-03-23T09:30:27;100459.34;;;8.46;42.57
45040;BME280;30778;53.574;7.770;2024-03-23T09:32:52;100453.94;;;7.55;43.07
45040;BME280;30778;53.574;7.770;2024-03-23T09:35:18;100446.19;;;7.78;43.02
45040;BME280;30778;53.574;7.770;2024-03-23T09:37:44;100451.50;;;8.47;42.46
45040;BME280;30778;53.574;7.770;2024-03-23T09:40:11;100447.75;;;7.04;42.13
45040;BME280;30778;53.574;7.770;2024-03-23T09:42:37;100450.88;;;7.15;43.17
45040;BME280;30778;53.574;7.770;2024-03-23T09:45:05;100446.44;;;6.34;44.93
45040;BME280;30778;53.574;7.770;2024-03-23T09:47:34;100444.97;;;6.24;45.63
45040;BME280;30778;53.574;7.770;2024-03-23T09:50:00;100451.09;;;7.09;43.73
45040;BME280;30778;53.574;7.770;2024-03-23T09:52:26;100463.91;;;6.57;45.86
45040;BME280;30778;53.574;7.770;2024-03-23T09:54:51;100502.78;;;5.63;48.51
45040;BME280;30778;53.574;7.770;2024-03-23T09:57:17;100471.97;;;3.94;49.13
45040;BME280;30778;53.574;7.770;2024-03-23T09:59:43;100481.22;;;3.03;51.96
45040;BME280;30778;53.574;7.770;2024-03-23T10:02:08;100471.13;;;2.88;53.09
45040;BME280;30778;53.574;7.770;2024-03-23T10:04:40;100473.06;;;3.32;52.27
45040;BME280;30778;53.574;7.770;2024-03-23T10:07:18;100464.06;;;3.53;52.86
45040;BME280;30778;53.574;7.770;2024-03-23T10:09:44;100465.75;;;4.04;52.35
45040;BME280;30778;53.574;7.770;2024-03-23T10:12:12;100456.34;;;4.00;52.09
45040;BME280;30778;53.574;7.770;2024-03-23T10:14:42;100466.63;;;3.56;52.91
45040;BME280;30778;53.574;7.770;2024-03-23T10:17:18;100457.97;;;4.04;53.10
45040;BME280;30778;53.574;7.770;2024-03-23T10:19:48;100456.84;;;5.00;52.83
45040;BME280;30778;53.574;7.770;2024-03-23T10:22:21;100452.19;;;6.13;50.34
45040;BME280;30778;53.574;7.770;2024-03-23T10:24:47;100458.34;;;6.71;50.72
45040;BME280;30778;53.574;7.770;2024-03-23T10:27:18;100453.47;;;6.60;48.84
45040;BME280;30778;53.574;7.770;2024-03-23T10:29:45;100451.72;;;6.61;47.01
45040;BME280;30778;53.574;7.770;2024-03-23T10:32:11;100443.50;;;7.56;47.25
45040;BME280;30778;53.574;7.770;2024-03-23T10:34:38;100454.41;;;7.39;45.53
45040;BME280;30778;53.574;7.770;2024-03-23T10:37:05;100448.22;;;6.32;47.46
45040;BME280;30778;53.574;7.770;2024-03-23T10:39:43;100451.31;;;6.14;47.99
45040;BME280;30778;53.574;7.770;2024-03-23T10:42:09;100449.16;;;5.33;48.71
45040;BME280;30778;53.574;7.770;2024-03-23T10:44:38;100441.16;;;5.06;50.27
45040;BME280;30778;53.574;7.770;2024-03-23T10:47:05;100442.56;;;4.41;50.73
45040;BME280;30778;53.574;7.770;2024-03-23T10:49:35;100441.16;;;5.40;49.07
45040;BME280;30778;53.574;7.770;2024-03-23T10:52:02;100440.78;;;4.84;50.51
45040;BME280;30778;53.574;7.770;2024-03-23T10:54:30;100455.50;;;4.82;49.96
45040;BME280;30778;53.574;7.770;2024-03-23T10:59:29;100463.78;;;4.98;48.64
45040;BME280;30778;53.574;7.770;2024-03-23T11:01:57;100447.03;;;5.47;47.48
45040;BME280;30778;53.574;7.770;2024-03-23T11:04:36;100448.06;;;6.95;45.56
45040;BME280;30778;53.574;7.770;2024-03-23T11:09:49;100441.31;;;8.41;41.47
45040;BME280;30778;53.574;7.770;2024-03-23T11:15:02;100429.66;;;8.28;41.91
45040;BME280;30778;53.574;7.770;2024-03-23T11:17:28;100420.03;;;8.30;41.99
45040;BME280;30778;53.574;7.770;2024-03-23T11:19:58;100415.81;;;7.53;41.79
45040;BME280;30778;53.574;7.770;2024-03-23T11:22:40;100428.16;;;7.73;40.96
45040;BME280;30778;53.574;7.770;2024-03-23T11:25:23;100428.03;;;7.77;41.92
45040;BME280;30778;53.574;7.770;2024-03-23T11:27:51;100431.16;;;7.35;40.92
45040;BME280;30778;53.574;7.770;2024-03-23T11:30:21;100430.94;;;7.16;41.35
45040;BME280;30778;53.574;7.770;2024-03-23T11:32:49;100421.56;;;8.57;42.55
45040;BME280;30778;53.574;7.770;2024-03-23T11:35:31;100407.53;;;8.84;40.71
45040;BME280;30778;53.574;7.770;2024-03-23T11:38:15;100412.03;;;8.80;39.03
45040;BME280;30778;53.574;7.770;2024-03-23T11:40:49;100407.25;;;9.12;39.42
45040;BME280;30778;53.574;7.770;2024-03-23T11:43:19;100395.53;;;8.80;39.65
45040;BME280;30778;53.574;7.770;2024-03-23T11:45:50;100405.88;;;9.46;39.40
45040;BME280;30778;53.574;7.770;2024-03-23T11:48:22;100410.88;;;8.65;38.62
45040;BME280;30778;53.574;7.770;2024-03-23T11:50:50;100406.72;;;7.90;37.74
45040;BME280;30778;53.574;7.770;2024-03-23T11:55:48;100404.00;;;9.07;37.95
45040;BME280;30778;53.574;7.770;2024-03-23T11:58:15;100410.38;;;9.00;37.03
45040;BME280;30778;53.574;7.770;2024-03-23T12:00:40;100396.19;;;9.89;34.91
45040;BME280;30778;53.574;7.770;2024-03-23T12:03:06;100388.00;;;10.15;35.71
45040;BME280;30778;53.574;7.770;2024-03-23T12:05:32;100397.75;;;9.93;35.22
45040;BME280;30778;53.574;7.770;2024-03-23T12:08:17;100403.59;;;8.28;36.61
45040;BME280;30778;53.574;7.770;2024-03-23T12:10:48;100393.84;;;8.56;37.28
45040;BME280;30778;53.574;7.770;2024-03-23T12:13:15;100389.50;;;8.55;37.87
45040;BME280;30778;53.574;7.770;2024-03-23T12:15:42;100390.94;;;7.95;37.64
45040;BME280;30778;53.574;7.770;2024-03-23T12:18:09;100400.28;;;6.72;39.03
45040;BME280;30778;53.574;7.770;2024-03-23T12:20:36;100406.22;;;7.81;38.09
45040;BME280;30778;53.574;7.770;2024-03-23T12:25:32;100393.97;;;7.59;38.74
45040;BME280;30778;53.574;7.770;2024-03-23T12:27:59;100407.59;;;7.66;38.86
45040;BME280;30778;53.574;7.770;2024-03-23T12:30:24;100411.00;;;7.16;38.82
45040;BME280;30778;53.574;7.770;2024-03-23T12:32:50;100412.50;;;7.48;38.68
45040;BME280;30778;53.574;7.770;2024-03-23T12:35:15;100408.56;;;7.37;38.95
45040;BME280;30778;53.574;7.770;2024-03-23T12:37:41;100413.66;;;5.99;40.46
45040;BME280;30778;53.574;7.770;2024-03-23T12:40:07;100417.19;;;5.98;40.52
45040;BME280;30778;53.574;7.770;2024-03-23T12:42:33;100412.53;;;5.45;41.79
45040;BME280;30778;53.574;7.770;2024-03-23T12:44:58;100405.66;;;6.66;40.04
45040;BME280;30778;53.574;7.770;2024-03-23T12:47:24;100399.91;;;7.63;37.89
45040;BME280;30778;53.574;7.770;2024-03-23T12:49:49;100395.94;;;8.01;37.60
45040;BME280;30778;53.574;7.770;2024-03-23T12:52:15;100388.84;;;8.74;36.39
45040;BME280;30778;53.574;7.770;2024-03-23T12:54:40;100390.44;;;8.54;36.97
45040;BME280;30778;53.574;7.770;2024-03-23T12:57:06;100401.44;;;7.68;37.37
45040;BME280;30778;53.574;7.770;2024-03-23T12:59:32;100394.47;;;7.94;37.37
45040;BME280;30778;53.574;7.770;2024-03-23T13:01:57;100395.78;;;7.04;39.14
45040;BME280;30778;53.574;7.770;2024-03-23T13:04:23;100407.16;;;7.26;40.81
45040;BME280;30778;53.574;7.770;2024-03-23T13:06:48;100400.34;;;6.42;45.31
45040;BME280;30778;53.574;7.770;2024-03-23T13:09:13;100397.25;;;5.98;46.14
45040;BME280;30778;53.574;7.770;2024-03-23T13:11:39;100402.03;;;5.50;46.95
45040;BME280;30778;53.574;7.770;2024-03-23T13:14:04;100405.59;;;5.78;45.43
45040;BME280;30778;53.574;7.770;2024-03-23T13:16:30;100411.41;;;4.48;46.38
45040;BME280;30778;53.574;7.770;2024-03-23T13:18:56;100401.09;;;5.19;44.48
45040;BME280;30778;53.574;7.770;2024-03-23T13:21:22;100402.00;;;5.51;43.89
45040;BME280;30778;53.574;7.770;2024-03-23T13:23:48;100391.91;;;6.04;42.62
45040;BME280;30778;53.574;7.770;2024-03-23T13:26:15;100392.81;;;6.61;41.88
45040;BME280;30778;53.574;7.770;2024-03-23T13:28:41;100389.13;;;6.68;41.40
45040;BME280;30778;53.574;7.770;2024-03-23T13:31:06;100393.16;;;6.79;39.96
45040;BME280;30778;53.574;7.770;2024-03-23T13:33:34;100384.25;;;7.38;39.88
45040;BME280;30778;53.574;7.770;2024-03-23T13:35:59;100384.31;;;8.10;37.63
45040;BME280;30778;53.574;7.770;2024-03-23T13:38:25;100370.69;;;8.03;37.31
45040;BME280;30778;53.574;7.770;2024-03-23T13:40:52;100368.19;;;8.46;36.99
45040;BME280;30778;53.574;7.770;2024-03-23T13:43:19;100387.75;;;7.11;38.67
45040;BME280;30778;53.574;7.770;2024-03-23T13:45:46;100390.69;;;6.74;40.79
45040;BME280;30778;53.574;7.770;2024-03-23T13:48:12;100387.59;;;8.15;39.15
45040;BME280;30778;53.574;7.770;2024-03-23T13:50:37;100381.97;;;9.14;38.02
45040;BME280;30778;53.574;7.770;2024-03-23T13:53:03;100391.38;;;8.30;37.49
45040;BME280;30778;53.574;7.770;2024-03-23T13:55:29;100400.56;;;6.91;39.29
45040;BME280;30778;53.574;7.770;2024-03-23T13:57:54;100403.56;;;5.90;40.70
45040;BME280;30778;53.574;7.770;2024-03-23T14:00:20;100407.25;;;5.15;41.77
45040;BME280;30778;53.574;7.770;2024-03-23T14:02:46;100410.34;;;4.94;42.90